Bullhead, South Dakota
Current Conditions -  °F | °C
As of 5:52 AM on Friday 19 Dec 2014 (Local Time) from KMBG Reporting Station
Haze Haze  
Wind Chill:   Ceiling: 11000
Heat Index: 20°   Visibility: 6mi
Dew Point: 18°   Wind: 9mph
Humidity: 92%   Direction: 150°SSE
Pressure: 29.96"   Gusts: NA
Location:  45.77°N, 101.08°W
Report Text: KMBG 191252Z AUTO 15008KT 6SM BR BKN110 M07/M08 A2996 RMK AO2 SLP172 T10671078 $
Loading
Personal Weather Stations






























Interactive Weather Map New forecast layout! Learn more

10-Day Weather Forecast

Advertisements
Track Severe Weather on mobile